sensor_id;sensor_type;location;lat;lon;timestamp;P1;durP1;ratioP1;P2;durP2;ratioP2
29576;SDS011;16509;53.862;10.672;2022-10-20T00:01:15;3.92;;;1.75;;
29576;SDS011;16509;53.862;10.672;2022-10-20T00:03:43;2.70;;;1.90;;
29576;SDS011;16509;53.862;10.672;2022-10-20T00:06:13;3.25;;;2.28;;
29576;SDS011;16509;53.862;10.672;2022-10-20T00:08:44;3.90;;;2.20;;
29576;SDS011;16509;53.862;10.672;2022-10-20T00:11:10;5.18;;;2.33;;
29576;SDS011;16509;53.862;10.672;2022-10-20T00:13:39;3.65;;;1.92;;
29576;SDS011;16509;53.862;10.672;2022-10-20T00:16:05;2.22;;;1.80;;
29576;SDS011;16509;53.862;10.672;2022-10-20T00:18:31;3.03;;;2.15;;
29576;SDS011;16509;53.862;10.672;2022-10-20T00:20:57;2.58;;;2.00;;
29576;SDS011;16509;53.862;10.672;2022-10-20T00:23:23;6.55;;;2.17;;
29576;SDS011;16509;53.862;10.672;2022-10-20T00:25:48;3.63;;;2.13;;
29576;SDS011;16509;53.862;10.672;2022-10-20T00:28:24;2.70;;;1.85;;
29576;SDS011;16509;53.862;10.672;2022-10-20T00:30:52;3.90;;;2.40;;
29576;SDS011;16509;53.862;10.672;2022-10-20T00:33:19;3.00;;;2.20;;
29576;SDS011;16509;53.862;10.672;2022-10-20T00:35:45;5.47;;;2.08;;
29576;SDS011;16509;53.862;10.672;2022-10-20T00:38:11;8.20;;;2.72;;
29576;SDS011;16509;53.862;10.672;2022-10-20T00:40:36;2.75;;;2.13;;
29576;SDS011;16509;53.862;10.672;2022-10-20T00:43:02;3.30;;;2.45;;
29576;SDS011;16509;53.862;10.672;2022-10-20T00:45:28;4.70;;;2.20;;
29576;SDS011;16509;53.862;10.672;2022-10-20T00:48:04;5.90;;;3.00;;
29576;SDS011;16509;53.862;10.672;2022-10-20T00:50:40;3.67;;;2.20;;
29576;SDS011;16509;53.862;10.672;2022-10-20T00:53:10;3.00;;;1.80;;
29576;SDS011;16509;53.862;10.672;2022-10-20T00:55:36;7.45;;;2.08;;
29576;SDS011;16509;53.862;10.672;2022-10-20T00:58:06;3.05;;;2.15;;
29576;SDS011;16509;53.862;10.672;2022-10-20T01:00:33;2.45;;;1.98;;
29576;SDS011;16509;53.862;10.672;2022-10-20T01:02:59;4.07;;;2.25;;
29576;SDS011;16509;53.862;10.672;2022-10-20T01:05:26;3.17;;;2.10;;
29576;SDS011;16509;53.862;10.672;2022-10-20T01:07:52;2.05;;;1.80;;
29576;SDS011;16509;53.862;10.672;2022-10-20T01:10:18;3.03;;;1.98;;
29576;SDS011;16509;53.862;10.672;2022-10-20T01:13:01;2.05;;;1.70;;
29576;SDS011;16509;53.862;10.672;2022-10-20T01:15:48;2.20;;;2.00;;
29576;SDS011;16509;53.862;10.672;2022-10-20T01:18:56;6.88;;;2.10;;
29576;SDS011;16509;53.862;10.672;2022-10-20T01:21:30;4.70;;;2.30;;
29576;SDS011;16509;53.862;10.672;2022-10-20T01:27:18;4.55;;;2.03;;
29576;SDS011;16509;53.862;10.672;2022-10-20T01:32:27;2.30;;;1.80;;
29576;SDS011;16509;53.862;10.672;2022-10-20T01:37:48;6.05;;;2.38;;
29576;SDS011;16509;53.862;10.672;2022-10-20T01:43:14;3.65;;;2.25;;
29576;SDS011;16509;53.862;10.672;2022-10-20T01:45:44;3.22;;;2.28;;
29576;SDS011;16509;53.862;10.672;2022-10-20T01:48:11;2.00;;;1.80;;
29576;SDS011;16509;53.862;10.672;2022-10-20T01:50:39;2.75;;;1.88;;
29576;SDS011;16509;53.862;10.672;2022-10-20T01:53:05;2.70;;;2.03;;
29576;SDS011;16509;53.862;10.672;2022-10-20T01:55:31;4.25;;;1.88;;
29576;SDS011;16509;53.862;10.672;2022-10-20T02:03:53;5.68;;;2.30;;
29576;SDS011;16509;53.862;10.672;2022-10-20T02:08:51;3.05;;;2.05;;
29576;SDS011;16509;53.862;10.672;2022-10-20T02:13:50;2.65;;;2.10;;
29576;SDS011;16509;53.862;10.672;2022-10-20T02:16:23;4.25;;;1.85;;
29576;SDS011;16509;53.862;10.672;2022-10-20T02:19:02;2.10;;;1.80;;
29576;SDS011;16509;53.862;10.672;2022-10-20T02:21:31;3.67;;;2.00;;
29576;SDS011;16509;53.862;10.672;2022-10-20T02:23:57;2.20;;;1.85;;
29576;SDS011;16509;53.862;10.672;2022-10-20T02:26:27;2.28;;;1.73;;
29576;SDS011;16509;53.862;10.672;2022-10-20T02:28:56;3.10;;;1.95;;
29576;SDS011;16509;53.862;10.672;2022-10-20T02:31:25;2.55;;;1.90;;
29576;SDS011;16509;53.862;10.672;2022-10-20T02:33:51;3.90;;;2.17;;
29576;SDS011;16509;53.862;10.672;2022-10-20T02:36:19;1.77;;;1.67;;
29576;SDS011;16509;53.862;10.672;2022-10-20T02:38:48;3.35;;;1.80;;
29576;SDS011;16509;53.862;10.672;2022-10-20T02:41:17;2.58;;;1.95;;
29576;SDS011;16509;53.862;10.672;2022-10-20T02:43:43;3.00;;;1.38;;
29576;SDS011;16509;53.862;10.672;2022-10-20T02:46:08;2.53;;;2.13;;
29576;SDS011;16509;53.862;10.672;2022-10-20T02:48:34;2.30;;;1.70;;
29576;SDS011;16509;53.862;10.672;2022-10-20T02:50:59;3.70;;;1.83;;
29576;SDS011;16509;53.862;10.672;2022-10-20T02:53:25;2.60;;;1.80;;
29576;SDS011;16509;53.862;10.672;2022-10-20T02:55:50;2.47;;;1.85;;
29576;SDS011;16509;53.862;10.672;2022-10-20T02:58:16;2.10;;;1.70;;
29576;SDS011;16509;53.862;10.672;2022-10-20T03:00:42;3.97;;;1.90;;
29576;SDS011;16509;53.862;10.672;2022-10-20T03:03:07;2.22;;;1.80;;
29576;SDS011;16509;53.862;10.672;2022-10-20T03:05:37;3.30;;;2.03;;
29576;SDS011;16509;53.862;10.672;2022-10-20T03:08:03;2.85;;;1.98;;
29576;SDS011;16509;53.862;10.672;2022-10-20T03:10:29;8.60;;;1.88;;
29576;SDS011;16509;53.862;10.672;2022-10-20T03:12:54;2.70;;;1.83;;
29576;SDS011;16509;53.862;10.672;2022-10-20T03:15:20;3.05;;;2.05;;
29576;SDS011;16509;53.862;10.672;2022-10-20T03:17:45;2.08;;;1.50;;
29576;SDS011;16509;53.862;10.672;2022-10-20T03:20:11;3.60;;;2.15;;
29576;SDS011;16509;53.862;10.672;2022-10-20T03:22:36;3.40;;;1.80;;
29576;SDS011;16509;53.862;10.672;2022-10-20T03:25:02;2.53;;;1.98;;
29576;SDS011;16509;53.862;10.672;2022-10-20T03:27:28;5.63;;;1.90;;
29576;SDS011;16509;53.862;10.672;2022-10-20T03:29:53;3.67;;;1.70;;
29576;SDS011;16509;53.862;10.672;2022-10-20T03:32:19;2.70;;;1.77;;
29576;SDS011;16509;53.862;10.672;2022-10-20T03:34:44;3.33;;;2.10;;
29576;SDS011;16509;53.862;10.672;2022-10-20T03:37:10;3.70;;;1.92;;
29576;SDS011;16509;53.862;10.672;2022-10-20T03:39:35;3.17;;;2.13;;
29576;SDS011;16509;53.862;10.672;2022-10-20T03:42:01;2.33;;;1.42;;
29576;SDS011;16509;53.862;10.672;2022-10-20T03:44:26;1.70;;;1.50;;
29576;SDS011;16509;53.862;10.672;2022-10-20T03:46:52;2.65;;;1.73;;
29576;SDS011;16509;53.862;10.672;2022-10-20T03:49:17;1.90;;;1.70;;
29576;SDS011;16509;53.862;10.672;2022-10-20T03:51:43;3.97;;;1.90;;
29576;SDS011;16509;53.862;10.672;2022-10-20T03:54:08;3.35;;;1.90;;
29576;SDS011;16509;53.862;10.672;2022-10-20T03:56:34;2.42;;;1.75;;
29576;SDS011;16509;53.862;10.672;2022-10-20T03:58:59;2.28;;;1.60;;
29576;SDS011;16509;53.862;10.672;2022-10-20T04:01:29;2.75;;;1.90;;
29576;SDS011;16509;53.862;10.672;2022-10-20T04:03:56;2.67;;;1.88;;
29576;SDS011;16509;53.862;10.672;2022-10-20T04:06:22;2.97;;;1.98;;
29576;SDS011;16509;53.862;10.672;2022-10-20T04:08:47;2.15;;;1.63;;
29576;SDS011;16509;53.862;10.672;2022-10-20T04:11:13;2.70;;;1.92;;
29576;SDS011;16509;53.862;10.672;2022-10-20T04:13:38;3.58;;;2.08;;
29576;SDS011;16509;53.862;10.672;2022-10-20T04:16:04;3.10;;;2.10;;
29576;SDS011;16509;53.862;10.672;2022-10-20T04:18:31;2.53;;;1.90;;
29576;SDS011;16509;53.862;10.672;2022-10-20T04:20:57;2.60;;;1.88;;
29576;SDS011;16509;53.862;10.672;2022-10-20T04:23:23;2.63;;;1.77;;
29576;SDS011;16509;53.862;10.672;2022-10-20T04:25:49;3.72;;;1.70;;
29576;SDS011;16509;53.862;10.672;2022-10-20T04:28:15;2.60;;;1.65;;
29576;SDS011;16509;53.862;10.672;2022-10-20T04:30:42;2.88;;;1.83;;
29576;SDS011;16509;53.862;10.672;2022-10-20T04:33:08;3.67;;;1.80;;
29576;SDS011;16509;53.862;10.672;2022-10-20T04:35:33;6.05;;;1.63;;
29576;SDS011;16509;53.862;10.672;2022-10-20T04:37:59;2.85;;;1.92;;
29576;SDS011;16509;53.862;10.672;2022-10-20T04:40:25;3.05;;;1.92;;
29576;SDS011;16509;53.862;10.672;2022-10-20T04:42:51;5.38;;;1.67;;
29576;SDS011;16509;53.862;10.672;2022-10-20T04:45:16;2.15;;;1.60;;
29576;SDS011;16509;53.862;10.672;2022-10-20T04:47:42;2.97;;;1.75;;
29576;SDS011;16509;53.862;10.672;2022-10-20T04:50:07;2.30;;;1.80;;
29576;SDS011;16509;53.862;10.672;2022-10-20T04:52:34;6.13;;;1.70;;
29576;SDS011;16509;53.862;10.672;2022-10-20T04:54:59;2.92;;;1.58;;
29576;SDS011;16509;53.862;10.672;2022-10-20T04:57:25;2.28;;;1.77;;
29576;SDS011;16509;53.862;10.672;2022-10-20T04:59:51;1.65;;;1.40;;
29576;SDS011;16509;53.862;10.672;2022-10-20T05:02:16;4.15;;;2.00;;
29576;SDS011;16509;53.862;10.672;2022-10-20T05:04:42;4.22;;;2.28;;
29576;SDS011;16509;53.862;10.672;2022-10-20T05:07:08;2.97;;;2.03;;
29576;SDS011;16509;53.862;10.672;2022-10-20T05:09:33;4.75;;;1.70;;
29576;SDS011;16509;53.862;10.672;2022-10-20T05:11:59;2.70;;;1.42;;
29576;SDS011;16509;53.862;10.672;2022-10-20T05:14:24;4.50;;;1.70;;
29576;SDS011;16509;53.862;10.672;2022-10-20T05:16:50;1.48;;;1.38;;
29576;SDS011;16509;53.862;10.672;2022-10-20T05:19:16;3.10;;;2.05;;
29576;SDS011;16509;53.862;10.672;2022-10-20T05:21:42;2.95;;;1.92;;
29576;SDS011;16509;53.862;10.672;2022-10-20T05:24:10;3.33;;;2.08;;
29576;SDS011;16509;53.862;10.672;2022-10-20T05:26:38;3.92;;;1.92;;
29576;SDS011;16509;53.862;10.672;2022-10-20T05:29:04;3.05;;;1.73;;
29576;SDS011;16509;53.862;10.672;2022-10-20T05:31:34;4.57;;;2.03;;
29576;SDS011;16509;53.862;10.672;2022-10-20T05:34:04;2.95;;;1.90;;
29576;SDS011;16509;53.862;10.672;2022-10-20T05:36:30;3.10;;;1.90;;
29576;SDS011;16509;53.862;10.672;2022-10-20T05:38:56;4.50;;;1.83;;
29576;SDS011;16509;53.862;10.672;2022-10-20T05:41:23;2.63;;;1.95;;
29576;SDS011;16509;53.862;10.672;2022-10-20T05:43:51;2.45;;;1.63;;
29576;SDS011;16509;53.862;10.672;2022-10-20T05:46:18;3.10;;;1.80;;
29576;SDS011;16509;53.862;10.672;2022-10-20T05:48:44;2.60;;;2.00;;
29576;SDS011;16509;53.862;10.672;2022-10-20T05:53:37;3.22;;;2.05;;
29576;SDS011;16509;53.862;10.672;2022-10-20T05:56:04;4.05;;;1.88;;
29576;SDS011;16509;53.862;10.672;2022-10-20T05:58:30;3.80;;;2.22;;
29576;SDS011;16509;53.862;10.672;2022-10-20T06:01:30;3.50;;;1.83;;
29576;SDS011;16509;53.862;10.672;2022-10-20T06:03:51;2.92;;;2.13;;
29576;SDS011;16509;53.862;10.672;2022-10-20T06:06:21;5.18;;;2.10;;
29576;SDS011;16509;53.862;10.672;2022-10-20T06:08:49;2.63;;;2.25;;
29576;SDS011;16509;53.862;10.672;2022-10-20T06:11:15;2.63;;;2.00;;
29576;SDS011;16509;53.862;10.672;2022-10-20T06:13:41;2.53;;;1.92;;
29576;SDS011;16509;53.862;10.672;2022-10-20T06:16:08;4.20;;;2.22;;
29576;SDS011;16509;53.862;10.672;2022-10-20T06:18:37;3.42;;;2.28;;
29576;SDS011;16509;53.862;10.672;2022-10-20T06:21:14;3.40;;;2.28;;
29576;SDS011;16509;53.862;10.672;2022-10-20T06:23:41;4.13;;;2.13;;
29576;SDS011;16509;53.862;10.672;2022-10-20T06:26:07;4.40;;;2.30;;
29576;SDS011;16509;53.862;10.672;2022-10-20T06:28:35;3.83;;;1.92;;
29576;SDS011;16509;53.862;10.672;2022-10-20T06:31:37;3.50;;;2.20;;
29576;SDS011;16509;53.862;10.672;2022-10-20T06:33:56;3.90;;;2.33;;
29576;SDS011;16509;53.862;10.672;2022-10-20T06:36:22;5.57;;;3.00;;
29576;SDS011;16509;53.862;10.672;2022-10-20T06:38:55;4.13;;;2.45;;
29576;SDS011;16509;53.862;10.672;2022-10-20T06:41:23;2.05;;;1.73;;
29576;SDS011;16509;53.862;10.672;2022-10-20T06:43:51;6.15;;;2.10;;
29576;SDS011;16509;53.862;10.672;2022-10-20T06:46:23;2.97;;;1.98;;
29576;SDS011;16509;53.862;10.672;2022-10-20T06:48:49;5.18;;;2.35;;
29576;SDS011;16509;53.862;10.672;2022-10-20T06:51:16;7.30;;;2.17;;
29576;SDS011;16509;53.862;10.672;2022-10-20T06:53:48;2.38;;;1.88;;
29576;SDS011;16509;53.862;10.672;2022-10-20T06:56:19;2.38;;;1.83;;
29576;SDS011;16509;53.862;10.672;2022-10-20T06:58:48;3.65;;;2.40;;
29576;SDS011;16509;53.862;10.672;2022-10-20T07:01:16;2.83;;;2.05;;
29576;SDS011;16509;53.862;10.672;2022-10-20T07:03:44;6.57;;;2.13;;
29576;SDS011;16509;53.862;10.672;2022-10-20T07:06:15;4.45;;;2.05;;
29576;SDS011;16509;53.862;10.672;2022-10-20T07:08:43;5.88;;;2.40;;
29576;SDS011;16509;53.862;10.672;2022-10-20T07:11:16;4.05;;;2.40;;
29576;SDS011;16509;53.862;10.672;2022-10-20T07:13:43;3.60;;;2.40;;
29576;SDS011;16509;53.862;10.672;2022-10-20T07:16:11;5.60;;;2.17;;
29576;SDS011;16509;53.862;10.672;2022-10-20T07:18:38;4.25;;;2.10;;
29576;SDS011;16509;53.862;10.672;2022-10-20T07:21:05;10.88;;;2.40;;
29576;SDS011;16509;53.862;10.672;2022-10-20T07:23:33;3.72;;;2.25;;
29576;SDS011;16509;53.862;10.672;2022-10-20T07:26:07;5.75;;;2.65;;
29576;SDS011;16509;53.862;10.672;2022-10-20T07:28:43;4.50;;;2.28;;
29576;SDS011;16509;53.862;10.672;2022-10-20T07:31:13;6.35;;;1.92;;
29576;SDS011;16509;53.862;10.672;2022-10-20T07:33:40;3.05;;;2.20;;
29576;SDS011;16509;53.862;10.672;2022-10-20T07:36:13;5.68;;;2.00;;
29576;SDS011;16509;53.862;10.672;2022-10-20T07:38:43;4.93;;;2.10;;
29576;SDS011;16509;53.862;10.672;2022-10-20T07:41:09;2.80;;;1.77;;
29576;SDS011;16509;53.862;10.672;2022-10-20T07:43:35;2.63;;;1.70;;
29576;SDS011;16509;53.862;10.672;2022-10-20T07:46:02;7.47;;;1.67;;
29576;SDS011;16509;53.862;10.672;2022-10-20T07:48:28;5.25;;;1.70;;
29576;SDS011;16509;53.862;10.672;2022-10-20T07:50:54;2.72;;;2.00;;
29576;SDS011;16509;53.862;10.672;2022-10-20T07:56:22;2.90;;;2.00;;
29576;SDS011;16509;53.862;10.672;2022-10-20T07:58:48;5.82;;;2.30;;
29576;SDS011;16509;53.862;10.672;2022-10-20T08:01:13;3.97;;;2.10;;
29576;SDS011;16509;53.862;10.672;2022-10-20T08:03:39;5.30;;;2.38;;
29576;SDS011;16509;53.862;10.672;2022-10-20T08:06:05;5.97;;;2.30;;
29576;SDS011;16509;53.862;10.672;2022-10-20T08:08:31;5.63;;;2.83;;
29576;SDS011;16509;53.862;10.672;2022-10-20T08:10:57;4.47;;;2.00;;
29576;SDS011;16509;53.862;10.672;2022-10-20T08:13:26;5.07;;;2.55;;
29576;SDS011;16509;53.862;10.672;2022-10-20T08:15:53;3.58;;;2.20;;
29576;SDS011;16509;53.862;10.672;2022-10-20T08:18:19;7.97;;;2.53;;
29576;SDS011;16509;53.862;10.672;2022-10-20T08:20:45;10.68;;;2.50;;
29576;SDS011;16509;53.862;10.672;2022-10-20T08:23:13;4.65;;;2.50;;
29576;SDS011;16509;53.862;10.672;2022-10-20T08:25:40;5.07;;;2.70;;
29576;SDS011;16509;53.862;10.672;2022-10-20T08:28:06;4.55;;;2.42;;
29576;SDS011;16509;53.862;10.672;2022-10-20T08:30:32;3.20;;;2.05;;
29576;SDS011;16509;53.862;10.672;2022-10-20T08:32:58;2.58;;;1.60;;
29576;SDS011;16509;53.862;10.672;2022-10-20T08:35:24;9.02;;;2.17;;
29576;SDS011;16509;53.862;10.672;2022-10-20T08:37:50;2.35;;;1.75;;
29576;SDS011;16509;53.862;10.672;2022-10-20T08:40:16;3.63;;;1.90;;
29576;SDS011;16509;53.862;10.672;2022-10-20T08:42:48;2.70;;;2.00;;
29576;SDS011;16509;53.862;10.672;2022-10-20T08:45:16;4.63;;;2.15;;
29576;SDS011;16509;53.862;10.672;2022-10-20T08:47:48;4.20;;;2.22;;
29576;SDS011;16509;53.862;10.672;2022-10-20T08:50:16;5.47;;;1.92;;
29576;SDS011;16509;53.862;10.672;2022-10-20T08:52:43;2.95;;;2.00;;
29576;SDS011;16509;53.862;10.672;2022-10-20T08:55:18;3.08;;;1.77;;
29576;SDS011;16509;53.862;10.672;2022-10-20T08:57:48;6.13;;;2.00;;
29576;SDS011;16509;53.862;10.672;2022-10-20T09:00:23;5.53;;;1.70;;
29576;SDS011;16509;53.862;10.672;2022-10-20T09:02:49;1.75;;;1.65;;
29576;SDS011;16509;53.862;10.672;2022-10-20T09:05:16;2.47;;;1.73;;
29576;SDS011;16509;53.862;10.672;2022-10-20T09:07:55;5.30;;;1.80;;
29576;SDS011;16509;53.862;10.672;2022-10-20T09:10:32;5.38;;;2.00;;
29576;SDS011;16509;53.862;10.672;2022-10-20T09:13:01;2.78;;;1.80;;
29576;SDS011;16509;53.862;10.672;2022-10-20T09:15:30;4.88;;;1.83;;
29576;SDS011;16509;53.862;10.672;2022-10-20T09:18:01;3.67;;;1.48;;
29576;SDS011;16509;53.862;10.672;2022-10-20T09:20:33;2.30;;;1.45;;
29576;SDS011;16509;53.862;10.672;2022-10-20T09:23:21;1.95;;;1.30;;
29576;SDS011;16509;53.862;10.672;2022-10-20T09:25:49;1.55;;;1.42;;
29576;SDS011;16509;53.862;10.672;2022-10-20T09:28:26;4.18;;;1.45;;
29576;SDS011;16509;53.862;10.672;2022-10-20T09:30:52;1.80;;;1.42;;
29576;SDS011;16509;53.862;10.672;2022-10-20T09:35:45;4.97;;;1.40;;
29576;SDS011;16509;53.862;10.672;2022-10-20T09:38:20;4.45;;;1.67;;
29576;SDS011;16509;53.862;10.672;2022-10-20T09:40:55;2.42;;;1.60;;
29576;SDS011;16509;53.862;10.672;2022-10-20T09:43:21;5.07;;;1.67;;
29576;SDS011;16509;53.862;10.672;2022-10-20T09:45:53;1.77;;;1.27;;
29576;SDS011;16509;53.862;10.672;2022-10-20T09:48:23;1.88;;;1.50;;
29576;SDS011;16509;53.862;10.672;2022-10-20T09:50:53;2.65;;;1.63;;
29576;SDS011;16509;53.862;10.672;2022-10-20T09:53:23;1.80;;;1.48;;
29576;SDS011;16509;53.862;10.672;2022-10-20T09:55:55;1.60;;;1.50;;
29576;SDS011;16509;53.862;10.672;2022-10-20T09:58:34;3.47;;;1.90;;
29576;SDS011;16509;53.862;10.672;2022-10-20T10:01:06;1.48;;;1.33;;
29576;SDS011;16509;53.862;10.672;2022-10-20T10:03:38;4.68;;;1.70;;
29576;SDS011;16509;53.862;10.672;2022-10-20T10:06:45;3.80;;;1.60;;
29576;SDS011;16509;53.862;10.672;2022-10-20T10:12:21;5.95;;;1.73;;
29576;SDS011;16509;53.862;10.672;2022-10-20T10:14:52;8.57;;;1.90;;
29576;SDS011;16509;53.862;10.672;2022-10-20T10:19:59;3.20;;;1.90;;
29576;SDS011;16509;53.862;10.672;2022-10-20T10:22:25;2.75;;;1.60;;
29576;SDS011;16509;53.862;10.672;2022-10-20T10:24:53;2.40;;;1.80;;
29576;SDS011;16509;53.862;10.672;2022-10-20T10:27:37;3.47;;;2.10;;
29576;SDS011;16509;53.862;10.672;2022-10-20T10:30:24;3.83;;;1.80;;
29576;SDS011;16509;53.862;10.672;2022-10-20T10:32:51;3.45;;;1.73;;
29576;SDS011;16509;53.862;10.672;2022-10-20T10:35:24;3.75;;;1.70;;
29576;SDS011;16509;53.862;10.672;2022-10-20T10:37:57;3.55;;;1.75;;
29576;SDS011;16509;53.862;10.672;2022-10-20T10:40:38;4.03;;;2.00;;
29576;SDS011;16509;53.862;10.672;2022-10-20T10:51:07;3.97;;;2.00;;
29576;SDS011;16509;53.862;10.672;2022-10-20T10:56:30;5.72;;;1.80;;
29576;SDS011;16509;53.862;10.672;2022-10-20T11:01:54;12.65;;;2.05;;
29576;SDS011;16509;53.862;10.672;2022-10-20T11:10:01;4.30;;;1.98;;
29576;SDS011;16509;53.862;10.672;2022-10-20T11:13:01;4.10;;;2.10;;
29576;SDS011;16509;53.862;10.672;2022-10-20T11:21:25;5.88;;;1.98;;
29576;SDS011;16509;53.862;10.672;2022-10-20T11:27:02;3.22;;;1.83;;
29576;SDS011;16509;53.862;10.672;2022-10-20T11:29:45;4.50;;;1.75;;
29576;SDS011;16509;53.862;10.672;2022-10-20T11:34:59;6.07;;;1.80;;
29576;SDS011;16509;53.862;10.672;2022-10-20T11:38:10;3.22;;;1.60;;
29576;SDS011;16509;53.862;10.672;2022-10-20T11:40:38;1.77;;;1.55;;
29576;SDS011;16509;53.862;10.672;2022-10-20T11:48:44;3.85;;;1.63;;
29576;SDS011;16509;53.862;10.672;2022-10-20T11:56:55;3.90;;;1.73;;
29576;SDS011;16509;53.862;10.672;2022-10-20T12:13:30;4.35;;;1.70;;
29576;SDS011;16509;53.862;10.672;2022-10-20T12:15:58;2.75;;;1.70;;
29576;SDS011;16509;53.862;10.672;2022-10-20T12:20:53;2.17;;;1.63;;
29576;SDS011;16509;53.862;10.672;2022-10-20T12:28:54;4.40;;;1.77;;
29576;SDS011;16509;53.862;10.672;2022-10-20T12:31:21;6.63;;;1.92;;
29576;SDS011;16509;53.862;10.672;2022-10-20T12:38:44;5.15;;;1.92;;
29576;SDS011;16509;53.862;10.672;2022-10-20T12:41:28;4.90;;;1.95;;
29576;SDS011;16509;53.862;10.672;2022-10-20T12:44:01;4.38;;;2.22;;
29576;SDS011;16509;53.862;10.672;2022-10-20T12:46:30;3.40;;;1.88;;
29576;SDS011;16509;53.862;10.672;2022-10-20T12:49:01;3.88;;;2.20;;
29576;SDS011;16509;53.862;10.672;2022-10-20T12:51:33;3.45;;;1.90;;
29576;SDS011;16509;53.862;10.672;2022-10-20T12:54:15;4.18;;;1.63;;
29576;SDS011;16509;53.862;10.672;2022-10-20T12:56:47;5.72;;;1.83;;
29576;SDS011;16509;53.862;10.672;2022-10-20T12:59:22;4.30;;;1.60;;
29576;SDS011;16509;53.862;10.672;2022-10-20T13:15:36;4.37;;;2.07;;
29576;SDS011;16509;53.862;10.672;2022-10-20T13:23:39;6.53;;;2.27;;
29576;SDS011;16509;53.862;10.672;2022-10-20T13:26:51;2.55;;;2.25;;
29576;SDS011;16509;53.862;10.672;2022-10-20T13:28:57;3.80;;;1.95;;
29576;SDS011;16509;53.862;10.672;2022-10-20T13:36:57;7.70;;;2.00;;
29576;SDS011;16509;53.862;10.672;2022-10-20T13:42:31;4.10;;;1.92;;
29576;SDS011;16509;53.862;10.672;2022-10-20T13:50:52;5.90;;;2.60;;
29576;SDS011;16509;53.862;10.672;2022-10-20T13:53:24;4.20;;;2.30;;
29576;SDS011;16509;53.862;10.672;2022-10-20T13:58:24;8.48;;;2.35;;
29576;SDS011;16509;53.862;10.672;2022-10-20T14:03:30;8.70;;;2.72;;
29576;SDS011;16509;53.862;10.672;2022-10-20T14:06:00;3.85;;;2.17;;
29576;SDS011;16509;53.862;10.672;2022-10-20T14:08:25;7.53;;;2.33;;
29576;SDS011;16509;53.862;10.672;2022-10-20T14:10:55;3.75;;;2.65;;
29576;SDS011;16509;53.862;10.672;2022-10-20T14:13:24;5.17;;;2.47;;
29576;SDS011;16509;53.862;10.672;2022-10-20T14:15:52;2.50;;;2.00;;
29576;SDS011;16509;53.862;10.672;2022-10-20T14:18:22;9.07;;;2.47;;
29576;SDS011;16509;53.862;10.672;2022-10-20T14:21:22;13.85;;;2.90;;
29576;SDS011;16509;53.862;10.672;2022-10-20T14:23:43;5.25;;;2.72;;
29576;SDS011;16509;53.862;10.672;2022-10-20T14:26:11;3.45;;;2.35;;
29576;SDS011;16509;53.862;10.672;2022-10-20T14:28:39;4.90;;;2.50;;
29576;SDS011;16509;53.862;10.672;2022-10-20T14:31:05;4.53;;;2.60;;
29576;SDS011;16509;53.862;10.672;2022-10-20T14:33:35;3.67;;;2.25;;
29576;SDS011;16509;53.862;10.672;2022-10-20T14:36:05;4.45;;;2.58;;
29576;SDS011;16509;53.862;10.672;2022-10-20T14:38:32;3.40;;;2.28;;
29576;SDS011;16509;53.862;10.672;2022-10-20T14:41:02;5.88;;;2.60;;
29576;SDS011;16509;53.862;10.672;2022-10-20T14:43:37;5.53;;;2.58;;
29576;SDS011;16509;53.862;10.672;2022-10-20T14:46:12;4.17;;;2.80;;
29576;SDS011;16509;53.862;10.672;2022-10-20T14:48:48;4.75;;;2.58;;
29576;SDS011;16509;53.862;10.672;2022-10-20T14:56:59;6.80;;;2.67;;
29576;SDS011;16509;53.862;10.672;2022-10-20T14:59:27;4.95;;;2.72;;
29576;SDS011;16509;53.862;10.672;2022-10-20T15:04:37;7.68;;;2.75;;
29576;SDS011;16509;53.862;10.672;2022-10-20T15:07:14;6.97;;;3.22;;
29576;SDS011;16509;53.862;10.672;2022-10-20T15:09:47;6.15;;;3.13;;
29576;SDS011;16509;53.862;10.672;2022-10-20T15:12:16;12.38;;;2.50;;
29576;SDS011;16509;53.862;10.672;2022-10-20T15:14:49;4.13;;;2.47;;
29576;SDS011;16509;53.862;10.672;2022-10-20T15:17:33;5.20;;;2.90;;
29576;SDS011;16509;53.862;10.672;2022-10-20T15:25:36;8.73;;;2.80;;
29576;SDS011;16509;53.862;10.672;2022-10-20T15:28:11;6.43;;;2.72;;
29576;SDS011;16509;53.862;10.672;2022-10-20T15:30:45;4.68;;;2.90;;
29576;SDS011;16509;53.862;10.672;2022-10-20T15:33:11;5.35;;;2.67;;
29576;SDS011;16509;53.862;10.672;2022-10-20T15:35:37;5.43;;;2.95;;
29576;SDS011;16509;53.862;10.672;2022-10-20T15:38:08;5.28;;;2.78;;
29576;SDS011;16509;53.862;10.672;2022-10-20T15:40:34;6.65;;;2.50;;
29576;SDS011;16509;53.862;10.672;2022-10-20T15:42:59;8.32;;;2.97;;
29576;SDS011;16509;53.862;10.672;2022-10-20T15:45:25;4.97;;;2.50;;
29576;SDS011;16509;53.862;10.672;2022-10-20T15:47:53;5.63;;;2.45;;
29576;SDS011;16509;53.862;10.672;2022-10-20T15:50:19;4.18;;;2.33;;
29576;SDS011;16509;53.862;10.672;2022-10-20T15:52:44;3.92;;;2.38;;
29576;SDS011;16509;53.862;10.672;2022-10-20T15:55:18;4.47;;;2.20;;
29576;SDS011;16509;53.862;10.672;2022-10-20T15:57:50;5.03;;;2.45;;
29576;SDS011;16509;53.862;10.672;2022-10-20T16:00:17;7.40;;;2.75;;
29576;SDS011;16509;53.862;10.672;2022-10-20T16:02:44;5.55;;;2.53;;
29576;SDS011;16509;53.862;10.672;2022-10-20T16:05:10;3.70;;;2.90;;
29576;SDS011;16509;53.862;10.672;2022-10-20T16:07:36;7.57;;;2.80;;
29576;SDS011;16509;53.862;10.672;2022-10-20T16:10:02;6.05;;;2.65;;
29576;SDS011;16509;53.862;10.672;2022-10-20T16:12:32;8.20;;;2.58;;
29576;SDS011;16509;53.862;10.672;2022-10-20T16:14:57;3.70;;;2.70;;
29576;SDS011;16509;53.862;10.672;2022-10-20T16:17:23;6.90;;;3.13;;
29576;SDS011;16509;53.862;10.672;2022-10-20T16:19:48;4.38;;;3.03;;
29576;SDS011;16509;53.862;10.672;2022-10-20T16:22:14;4.63;;;2.95;;
29576;SDS011;16509;53.862;10.672;2022-10-20T16:24:39;7.22;;;3.10;;
29576;SDS011;16509;53.862;10.672;2022-10-20T16:27:05;6.13;;;2.95;;
29576;SDS011;16509;53.862;10.672;2022-10-20T16:29:31;4.70;;;2.83;;
29576;SDS011;16509;53.862;10.672;2022-10-20T16:31:56;5.03;;;3.38;;
29576;SDS011;16509;53.862;10.672;2022-10-20T16:34:23;6.60;;;3.40;;
29576;SDS011;16509;53.862;10.672;2022-10-20T16:36:49;4.85;;;2.80;;
29576;SDS011;16509;53.862;10.672;2022-10-20T16:39:15;6.63;;;3.00;;
29576;SDS011;16509;53.862;10.672;2022-10-20T16:41:41;8.00;;;3.28;;
29576;SDS011;16509;53.862;10.672;2022-10-20T16:44:07;4.22;;;2.85;;
29576;SDS011;16509;53.862;10.672;2022-10-20T16:46:33;11.05;;;3.60;;
29576;SDS011;16509;53.862;10.672;2022-10-20T16:48:59;9.93;;;3.40;;
29576;SDS011;16509;53.862;10.672;2022-10-20T16:51:25;10.05;;;2.97;;
29576;SDS011;16509;53.862;10.672;2022-10-20T16:53:52;6.78;;;3.15;;
29576;SDS011;16509;53.862;10.672;2022-10-20T16:56:18;5.05;;;2.53;;
29576;SDS011;16509;53.862;10.672;2022-10-20T16:58:44;6.75;;;4.00;;
29576;SDS011;16509;53.862;10.672;2022-10-20T17:01:10;10.80;;;3.28;;
29576;SDS011;16509;53.862;10.672;2022-10-20T17:03:39;11.00;;;4.25;;
29576;SDS011;16509;53.862;10.672;2022-10-20T17:06:07;4.63;;;3.03;;
29576;SDS011;16509;53.862;10.672;2022-10-20T17:08:33;7.88;;;4.00;;
29576;SDS011;16509;53.862;10.672;2022-10-20T17:11:07;7.72;;;3.80;;
29576;SDS011;16509;53.862;10.672;2022-10-20T17:13:34;5.13;;;3.22;;
29576;SDS011;16509;53.862;10.672;2022-10-20T17:18:31;9.25;;;3.55;;
29576;SDS011;16509;53.862;10.672;2022-10-20T17:20:56;8.93;;;4.10;;
29576;SDS011;16509;53.862;10.672;2022-10-20T17:23:22;9.73;;;3.72;;
29576;SDS011;16509;53.862;10.672;2022-10-20T17:25:49;9.32;;;3.22;;